createdAt,value
2019-03-10T00:00:54.420Z,13.10
2019-03-10T00:03:23.212Z,13.00
2019-03-10T00:05:50.886Z,13.00
2019-03-10T00:08:18.587Z,12.90
2019-03-10T00:10:46.237Z,12.90
2019-03-10T00:13:13.952Z,13.00
2019-03-10T00:15:41.616Z,13.00
2019-03-10T00:18:09.308Z,13.10
2019-03-10T00:20:36.990Z,13.10
2019-03-10T00:23:04.694Z,13.00
2019-03-10T00:25:32.326Z,13.10
2019-03-10T00:28:00.039Z,13.00
2019-03-10T00:30:28.680Z,12.90
2019-03-10T00:32:56.349Z,12.90
2019-03-10T00:35:24.081Z,13.00
2019-03-10T00:37:51.753Z,13.00
2019-03-10T00:40:41.432Z,13.10
2019-03-10T00:43:40.974Z,13.00
2019-03-10T00:46:47.123Z,13.10
2019-03-10T00:49:47.521Z,13.20
2019-03-10T00:52:19.144Z,13.10
2019-03-10T00:54:46.784Z,13.20
2019-03-10T00:57:14.452Z,13.20
2019-03-10T00:59:42.168Z,13.10
2019-03-10T01:02:09.812Z,13.10
2019-03-10T01:04:37.483Z,13.10
2019-03-10T01:07:05.142Z,13.10
2019-03-10T01:09:32.882Z,13.10
2019-03-10T01:12:01.841Z,13.10
2019-03-10T01:14:29.529Z,13.00
2019-03-10T01:16:57.584Z,12.90
2019-03-10T01:19:26.326Z,13.00
2019-03-10T01:21:55.965Z,13.10
2019-03-10T01:24:23.598Z,13.10
2019-03-10T01:26:51.264Z,13.10
2019-03-10T01:29:18.933Z,13.20
2019-03-10T01:32:25.834Z,13.20
2019-03-10T01:35:00.325Z,13.00
2019-03-10T01:37:28.535Z,13.00
2019-03-10T01:39:56.513Z,12.90
2019-03-10T01:42:24.217Z,12.90
2019-03-10T01:44:51.881Z,12.90
2019-03-10T01:47:20.661Z,13.00
2019-03-10T01:49:48.320Z,13.00
2019-03-10T01:52:16.062Z,13.00
2019-03-10T01:54:43.688Z,13.00
2019-03-10T01:57:11.392Z,12.90
2019-03-10T01:59:39.029Z,12.80
2019-03-10T02:02:06.748Z,12.90
2019-03-10T02:04:34.372Z,13.00
2019-03-10T02:07:02.750Z,13.20
2019-03-10T02:09:30.449Z,13.10
2019-03-10T02:11:58.117Z,13.10
2019-03-10T02:14:25.904Z,13.00
2019-03-10T02:16:53.590Z,13.00
2019-03-10T02:19:21.260Z,13.00
2019-03-10T02:21:48.960Z,13.10
2019-03-10T02:24:23.763Z,13.20
2019-03-10T02:26:46.329Z,13.20
2019-03-10T02:29:13.985Z,13.20
2019-03-10T02:31:41.750Z,13.20
2019-03-10T02:34:09.523Z,13.20
2019-03-10T02:36:38.245Z,13.10
2019-03-10T02:39:06.726Z,13.10
2019-03-10T02:41:34.885Z,13.10
2019-03-10T02:44:02.609Z,13.10
2019-03-10T02:46:30.388Z,13.10
2019-03-10T02:48:58.037Z,13.00
2019-03-10T02:51:25.673Z,13.00
2019-03-10T02:53:53.406Z,12.80
2019-03-10T02:56:21.112Z,12.90
2019-03-10T02:58:48.778Z,12.80
2019-03-10T03:01:16.446Z,12.80
2019-03-10T03:03:44.258Z,12.80
2019-03-10T03:06:11.875Z,12.90
2019-03-10T03:08:39.619Z,12.90
2019-03-10T03:11:07.291Z,12.90
2019-03-10T03:13:36.094Z,12.90
2019-03-10T03:16:03.854Z,12.80
2019-03-10T03:18:31.528Z,12.70
2019-03-10T03:20:59.261Z,12.50
2019-03-10T03:23:26.985Z,12.40
2019-03-10T03:25:54.709Z,12.20
2019-03-10T03:28:22.394Z,12.20
2019-03-10T03:30:50.137Z,12.10
2019-03-10T03:33:17.796Z,12.30
2019-03-10T03:35:47.974Z,12.20
2019-03-10T03:38:17.419Z,12.00
2019-03-10T03:40:47.574Z,11.80
2019-03-10T03:43:15.237Z,11.80
2019-03-10T03:45:42.953Z,11.60
2019-03-10T03:48:10.616Z,11.40
2019-03-10T03:50:38.279Z,11.30
2019-03-10T03:53:06.076Z,11.20
2019-03-10T03:55:33.711Z,11.30
2019-03-10T03:58:01.557Z,11.30
2019-03-10T04:00:29.173Z,11.30
2019-03-10T04:02:56.955Z,11.10
2019-03-10T04:05:24.663Z,11.10
2019-03-10T04:07:52.430Z,11.10
2019-03-10T04:10:20.102Z,11.20
2019-03-10T04:12:48.070Z,11.10
2019-03-10T04:15:15.797Z,10.90
2019-03-10T04:17:43.497Z,10.80
2019-03-10T04:20:11.153Z,10.80
2019-03-10T04:22:38.818Z,10.70
2019-03-10T04:25:06.538Z,10.80
2019-03-10T04:27:34.245Z,10.70
2019-03-10T04:30:01.951Z,10.80
2019-03-10T04:32:30.809Z,10.70
2019-03-10T04:34:58.492Z,10.60
2019-03-10T04:37:26.170Z,10.50
2019-03-10T04:39:53.900Z,10.40
2019-03-10T04:42:21.557Z,10.40
2019-03-10T04:44:49.188Z,10.30
2019-03-10T04:47:16.857Z,10.30
2019-03-10T04:49:44.513Z,10.30
2019-03-10T04:52:12.163Z,10.20
2019-03-10T04:54:57.789Z,10.10
2019-03-10T04:57:25.431Z,10.20
2019-03-10T04:59:53.097Z,10.50
2019-03-10T05:02:20.745Z,10.60
2019-03-10T05:04:48.462Z,10.60
2019-03-10T05:07:16.086Z,10.70
2019-03-10T05:09:43.781Z,10.80
2019-03-10T05:12:11.428Z,11.00
2019-03-10T05:14:39.132Z,11.10
2019-03-10T05:17:06.762Z,10.90
2019-03-10T05:19:34.397Z,10.80
2019-03-10T05:22:03.386Z,10.80
2019-03-10T05:24:31.041Z,10.90
2019-03-10T05:26:58.715Z,10.80
2019-03-10T05:29:26.353Z,10.70
2019-03-10T05:31:53.996Z,10.60
2019-03-10T05:34:21.766Z,10.60
2019-03-10T05:36:49.412Z,10.60
2019-03-10T05:39:17.125Z,10.60
2019-03-10T05:41:44.816Z,10.60
2019-03-10T05:44:12.461Z,10.60
2019-03-10T05:46:40.221Z,10.60
2019-03-10T05:49:07.873Z,10.50
2019-03-10T05:51:35.553Z,10.50
2019-03-10T05:54:03.293Z,10.40
2019-03-10T05:56:30.929Z,10.30
2019-03-10T05:58:58.585Z,10.20
2019-03-10T06:01:26.229Z,10.20
2019-03-10T06:03:53.904Z,10.20
2019-03-10T06:06:21.581Z,10.10
2019-03-10T06:08:49.745Z,10.20
2019-03-10T06:11:17.440Z,10.20
2019-03-10T06:13:45.140Z,10.20
2019-03-10T06:16:12.789Z,10.40
2019-03-10T06:18:40.519Z,10.50
2019-03-10T06:21:08.237Z,10.60
2019-03-10T06:23:35.862Z,10.80
2019-03-10T06:26:03.532Z,10.90
2019-03-10T06:28:31.216Z,11.00
2019-03-10T06:30:58.888Z,10.90
2019-03-10T06:33:26.610Z,10.60
2019-03-10T06:35:54.297Z,10.50
2019-03-10T06:38:22.006Z,10.40
2019-03-10T06:40:49.917Z,10.50
2019-03-10T06:43:17.594Z,10.50
2019-03-10T06:45:45.303Z,10.60
2019-03-10T06:48:12.946Z,10.80
2019-03-10T06:50:40.589Z,10.90
2019-03-10T06:53:08.460Z,11.10
2019-03-10T06:55:36.149Z,11.20
2019-03-10T06:58:03.800Z,11.10
2019-03-10T07:00:31.461Z,11.20
2019-03-10T07:02:59.153Z,11.20
2019-03-10T07:05:26.802Z,11.30
2019-03-10T07:07:54.572Z,11.30
2019-03-10T07:10:22.242Z,11.30
2019-03-10T07:12:49.877Z,11.50
2019-03-10T07:15:17.591Z,11.70
2019-03-10T07:17:45.275Z,11.70
2019-03-10T07:20:14.599Z,11.80
2019-03-10T07:22:42.256Z,11.80
2019-03-10T07:25:09.909Z,11.80
2019-03-10T07:27:52.331Z,11.70
2019-03-10T07:30:57.449Z,11.70
2019-03-10T07:33:44.662Z,11.90
2019-03-10T07:36:31.837Z,11.90
2019-03-10T07:39:17.521Z,11.90
2019-03-10T07:42:10.421Z,12.00
2019-03-10T07:44:48.301Z,12.00
2019-03-10T07:47:25.799Z,12.00
2019-03-10T07:50:11.626Z,12.00
2019-03-10T07:53:01.626Z,12.00
2019-03-10T07:55:41.829Z,12.10
2019-03-10T07:58:27.161Z,12.10
2019-03-10T08:01:04.319Z,12.10
2019-03-10T08:03:57.332Z,12.20
2019-03-10T08:07:02.729Z,12.20
2019-03-10T08:10:02.335Z,12.20
2019-03-10T08:12:57.117Z,12.20
2019-03-10T08:16:02.247Z,12.20
2019-03-10T08:18:49.910Z,12.30
2019-03-10T08:21:45.515Z,12.30
2019-03-10T08:24:38.725Z,12.40
2019-03-10T08:27:24.541Z,12.40
2019-03-10T08:30:05.494Z,12.30
2019-03-10T08:32:41.651Z,12.30
2019-03-10T08:35:31.605Z,12.40
2019-03-10T08:38:16.423Z,12.50
2019-03-10T08:41:07.257Z,12.50
2019-03-10T08:43:49.328Z,12.50
2019-03-10T08:46:26.506Z,12.50
2019-03-10T08:49:04.212Z,12.60
2019-03-10T08:51:43.777Z,12.70
2019-03-10T08:54:27.081Z,12.60
2019-03-10T08:57:14.285Z,12.60
2019-03-10T09:00:04.237Z,12.60
2019-03-10T09:02:57.843Z,12.60
2019-03-10T09:05:43.414Z,12.70
2019-03-10T09:08:29.116Z,12.80
2019-03-10T09:11:19.217Z,12.90
2019-03-10T09:13:54.929Z,12.80
2019-03-10T09:16:32.938Z,12.80
2019-03-10T09:19:19.029Z,12.80
2019-03-10T09:22:09.076Z,12.80
2019-03-10T09:24:59.103Z,12.80
2019-03-10T09:28:01.866Z,12.80
2019-03-10T09:31:00.992Z,12.90
2019-03-10T09:33:43.325Z,13.00
2019-03-10T09:36:36.417Z,12.90
2019-03-10T09:39:33.995Z,12.90
2019-03-10T09:42:20.103Z,13.00
2019-03-10T09:44:55.204Z,12.90
2019-03-10T09:47:32.212Z,13.00
2019-03-10T09:50:28.640Z,13.10
2019-03-10T09:53:14.340Z,13.00
2019-03-10T09:56:01.248Z,13.10
2019-03-10T09:58:36.062Z,13.10
2019-03-10T10:01:23.262Z,13.10
2019-03-10T10:04:22.114Z,13.10
2019-03-10T10:06:57.763Z,13.10
2019-03-10T10:09:40.357Z,13.10
2019-03-10T10:12:45.879Z,13.10
2019-03-10T10:15:21.941Z,13.10
2019-03-10T10:18:06.560Z,13.20
2019-03-10T10:20:41.688Z,13.10
2019-03-10T10:23:26.193Z,13.10
2019-03-10T10:26:22.361Z,13.10
2019-03-10T10:29:24.858Z,13.20
2019-03-10T10:32:07.677Z,13.20
2019-03-10T10:34:52.714Z,13.30
2019-03-10T10:37:40.377Z,13.20
2019-03-10T10:40:23.661Z,13.10
2019-03-10T10:43:13.804Z,13.10
2019-03-10T10:46:04.083Z,13.40
2019-03-10T10:48:43.783Z,13.40
2019-03-10T10:51:37.186Z,13.50
2019-03-10T10:54:22.632Z,13.50
2019-03-10T10:57:09.813Z,13.40
2019-03-10T10:59:51.662Z,13.50
2019-03-10T11:02:37.385Z,13.70
2019-03-10T11:05:27.868Z,13.80
2019-03-10T11:08:30.142Z,13.80
2019-03-10T11:11:17.525Z,14.00
2019-03-10T11:13:56.448Z,14.00
2019-03-10T11:16:46.544Z,14.00
2019-03-10T11:19:22.521Z,14.20
2019-03-10T11:22:09.733Z,14.10
2019-03-10T11:24:59.534Z,14.00
2019-03-10T11:27:49.291Z,14.00
2019-03-10T11:30:35.171Z,14.20
2019-03-10T11:33:28.354Z,14.20
2019-03-10T11:36:24.692Z,14.30
2019-03-10T11:39:15.158Z,14.40
2019-03-10T11:42:01.082Z,14.50
2019-03-10T11:44:46.662Z,14.50
2019-03-10T11:47:32.907Z,14.60
2019-03-10T11:50:17.478Z,14.50
2019-03-10T11:52:59.303Z,14.50
2019-03-10T11:55:37.374Z,14.60
2019-03-10T11:58:24.565Z,14.60
2019-03-10T12:01:18.056Z,14.50
2019-03-10T12:03:54.373Z,14.60
2019-03-10T12:06:30.880Z,15.00
2019-03-10T12:09:06.988Z,15.10
2019-03-10T12:11:35.154Z,15.20
2019-03-10T12:14:02.890Z,15.10
2019-03-10T12:16:31.583Z,15.10
2019-03-10T12:18:59.294Z,15.00
2019-03-10T12:21:27.144Z,14.90
2019-03-10T12:23:54.844Z,14.90
2019-03-10T12:26:22.566Z,14.70
2019-03-10T12:28:50.382Z,14.60
2019-03-10T12:31:18.094Z,14.40
2019-03-10T12:33:45.905Z,14.40
2019-03-10T12:36:13.639Z,14.20
2019-03-10T12:38:41.361Z,14.20
2019-03-10T12:41:09.067Z,14.00
2019-03-10T12:43:36.817Z,13.90
2019-03-10T12:46:04.654Z,13.60
2019-03-10T12:48:32.473Z,13.20
2019-03-10T12:51:00.186Z,13.00
2019-03-10T12:53:28.044Z,13.00
2019-03-10T12:55:55.782Z,13.30
2019-03-10T12:58:23.561Z,13.60
2019-03-10T13:00:51.286Z,13.90
2019-03-10T13:03:19.000Z,14.20
2019-03-10T13:05:46.710Z,14.40
2019-03-10T13:08:14.422Z,14.50
2019-03-10T13:10:42.132Z,14.70
2019-03-10T13:13:09.850Z,14.90
2019-03-10T13:15:37.695Z,15.10
2019-03-10T13:18:06.201Z,15.20
2019-03-10T13:20:34.921Z,15.40
2019-03-10T13:23:07.606Z,15.50
2019-03-10T13:25:35.803Z,15.60
2019-03-10T13:28:03.469Z,15.60
2019-03-10T13:30:31.166Z,15.80
2019-03-10T13:32:58.900Z,15.90
2019-03-10T13:35:26.610Z,16.00
2019-03-10T13:37:54.348Z,16.00
2019-03-10T13:40:22.207Z,15.80
2019-03-10T13:42:49.984Z,15.90
2019-03-10T13:45:18.037Z,15.90
2019-03-10T13:47:45.760Z,15.70
2019-03-10T13:50:14.051Z,15.90
2019-03-10T13:52:41.687Z,15.90
2019-03-10T13:55:09.420Z,16.00
2019-03-10T13:57:37.088Z,16.00
2019-03-10T14:00:06.992Z,16.10
2019-03-10T14:02:34.787Z,16.20
2019-03-10T14:05:03.803Z,16.30
2019-03-10T14:07:31.743Z,16.20
2019-03-10T14:09:59.481Z,16.00
2019-03-10T14:12:27.139Z,16.00
2019-03-10T14:14:54.840Z,15.80
2019-03-10T14:17:22.527Z,15.80
2019-03-10T14:19:50.218Z,16.00
2019-03-10T14:22:17.933Z,15.90
2019-03-10T14:24:45.630Z,15.90
2019-03-10T14:27:13.388Z,15.90
2019-03-10T14:29:41.068Z,15.80
2019-03-10T14:32:08.783Z,15.70
2019-03-10T14:34:36.493Z,15.60
2019-03-10T14:37:04.161Z,15.50
2019-03-10T14:39:31.870Z,15.50
2019-03-10T14:41:59.633Z,15.50
2019-03-10T14:44:27.333Z,15.50
2019-03-10T14:46:55.057Z,15.40
2019-03-10T14:49:23.726Z,15.50
2019-03-10T14:51:51.625Z,15.40
2019-03-10T14:54:19.334Z,15.30
2019-03-10T14:56:47.057Z,15.20
2019-03-10T14:59:14.852Z,15.20
2019-03-10T15:01:42.603Z,15.20
2019-03-10T15:04:11.920Z,15.30
2019-03-10T15:06:39.874Z,15.40
2019-03-10T15:09:08.054Z,15.30
2019-03-10T15:11:37.850Z,15.30
2019-03-10T15:14:05.644Z,15.30
2019-03-10T15:16:33.384Z,15.30
2019-03-10T15:19:01.331Z,15.10
2019-03-10T15:21:29.217Z,15.00
2019-03-10T15:23:57.098Z,14.90
2019-03-10T15:26:24.864Z,14.90
2019-03-10T15:28:52.672Z,14.80
2019-03-10T15:31:20.400Z,14.70
2019-03-10T15:33:48.122Z,14.70
2019-03-10T15:36:20.344Z,14.70
2019-03-10T15:38:45.767Z,14.70
2019-03-10T15:41:13.469Z,14.70
2019-03-10T15:43:41.170Z,14.60
2019-03-10T15:46:08.917Z,14.60
2019-03-10T15:48:36.738Z,14.60
2019-03-10T15:51:04.642Z,14.70
2019-03-10T15:53:32.361Z,14.70
2019-03-10T15:56:00.071Z,14.70
2019-03-10T15:58:28.670Z,14.50
2019-03-10T16:00:56.528Z,14.50
2019-03-10T16:03:24.263Z,14.40
2019-03-10T16:05:51.964Z,14.30
2019-03-10T16:08:19.706Z,14.30
2019-03-10T16:10:47.444Z,14.30
2019-03-10T16:13:15.181Z,14.20
2019-03-10T16:15:42.943Z,14.10
2019-03-10T16:18:10.677Z,14.00
2019-03-10T16:20:38.446Z,13.90
2019-03-10T16:23:06.525Z,13.80
2019-03-10T16:25:34.279Z,13.80
2019-03-10T16:28:02.486Z,13.80
2019-03-10T16:30:30.351Z,13.80
2019-03-10T16:32:58.010Z,13.80
2019-03-10T16:35:25.751Z,13.70
2019-03-10T16:37:53.447Z,13.70
2019-03-10T16:40:21.665Z,13.70
2019-03-10T16:42:49.553Z,13.70
2019-03-10T16:45:18.496Z,13.60
2019-03-10T16:47:46.236Z,13.50
2019-03-10T16:50:15.116Z,13.50
2019-03-10T16:52:42.874Z,13.30
2019-03-10T16:55:10.745Z,13.30
2019-03-10T16:57:38.648Z,13.30
2019-03-10T17:00:06.967Z,13.20
2019-03-10T17:02:35.909Z,13.10
2019-03-10T17:05:04.519Z,13.10
2019-03-10T17:07:32.374Z,13.00
2019-03-10T17:10:00.085Z,13.00
2019-03-10T17:12:27.999Z,13.00
2019-03-10T17:14:55.789Z,12.90
2019-03-10T17:17:23.519Z,12.90
2019-03-10T17:19:51.430Z,13.10
2019-03-10T17:22:19.116Z,13.10
2019-03-10T17:24:46.834Z,13.10
2019-03-10T17:27:14.522Z,13.00
2019-03-10T17:29:42.263Z,13.00
2019-03-10T17:32:09.971Z,13.00
2019-03-10T17:34:37.737Z,12.80
2019-03-10T17:37:05.472Z,12.80
2019-03-10T17:39:33.312Z,12.80
2019-03-10T17:42:01.256Z,12.80
2019-03-10T17:44:28.961Z,12.90
2019-03-10T17:46:56.673Z,12.90
2019-03-10T17:49:24.390Z,13.00
2019-03-10T17:51:52.026Z,12.80
2019-03-10T17:54:19.894Z,12.80
2019-03-10T17:56:47.662Z,12.50
2019-03-10T17:59:15.309Z,12.10
2019-03-10T18:01:42.941Z,11.70
2019-03-10T18:04:10.629Z,11.50
2019-03-10T18:06:38.897Z,11.30
2019-03-10T18:09:07.731Z,11.20
2019-03-10T18:11:36.105Z,11.00
2019-03-10T18:14:03.805Z,10.90
2019-03-10T18:16:33.458Z,10.80
2019-03-10T18:19:01.196Z,10.70
2019-03-10T18:21:28.912Z,10.80
2019-03-10T18:23:56.679Z,10.80
2019-03-10T18:26:24.503Z,10.80
2019-03-10T18:28:52.180Z,10.90
2019-03-10T18:31:19.958Z,10.90
2019-03-10T18:33:47.693Z,10.90
2019-03-10T18:36:15.516Z,10.80
2019-03-10T18:38:43.301Z,10.90
2019-03-10T18:41:11.162Z,10.70
2019-03-10T18:43:38.902Z,10.60
2019-03-10T18:46:06.587Z,10.60
2019-03-10T18:48:34.378Z,10.60
2019-03-10T18:51:03.350Z,10.60
2019-03-10T18:53:30.987Z,10.60
2019-03-10T18:55:58.866Z,10.60
2019-03-10T18:58:26.569Z,10.60
2019-03-10T19:00:54.306Z,10.50
2019-03-10T19:03:22.045Z,10.50
2019-03-10T19:05:49.790Z,10.60
2019-03-10T19:08:17.582Z,10.70
2019-03-10T19:10:45.314Z,10.80
2019-03-10T19:13:13.089Z,10.80
2019-03-10T19:15:40.914Z,10.70
2019-03-10T19:18:08.607Z,10.60
2019-03-10T19:20:36.434Z,10.70
2019-03-10T19:23:04.149Z,10.80
2019-03-10T19:25:31.834Z,10.90
2019-03-10T19:27:59.636Z,10.80
2019-03-10T19:30:27.306Z,10.70
2019-03-10T19:32:55.141Z,10.60
2019-03-10T19:35:22.945Z,10.50
2019-03-10T19:37:50.619Z,10.40
2019-03-10T19:40:18.681Z,10.40
2019-03-10T19:42:46.634Z,10.40
2019-03-10T19:45:14.849Z,10.30
2019-03-10T19:47:42.513Z,10.30
2019-03-10T19:50:11.151Z,10.20
2019-03-10T19:52:39.033Z,10.20
2019-03-10T19:55:08.756Z,10.30
2019-03-10T19:57:37.907Z,10.30
2019-03-10T20:00:08.325Z,10.30
2019-03-10T20:02:36.400Z,10.20
2019-03-10T20:05:04.595Z,10.10
2019-03-10T20:07:32.804Z,10.00
2019-03-10T20:10:00.814Z,10.00
2019-03-10T20:12:28.478Z,9.90
2019-03-10T20:14:56.246Z,10.00
2019-03-10T20:17:24.266Z,10.00
2019-03-10T20:19:52.063Z,10.00
2019-03-10T20:22:19.789Z,9.80
2019-03-10T20:24:47.453Z,9.70
2019-03-10T20:27:15.198Z,9.70
2019-03-10T20:29:42.882Z,9.80
2019-03-10T20:32:14.276Z,9.90
2019-03-10T20:34:41.215Z,10.00
2019-03-10T20:37:09.546Z,10.00
2019-03-10T20:39:38.118Z,9.90
2019-03-10T20:42:06.056Z,9.90
2019-03-10T20:44:33.765Z,10.00
2019-03-10T20:47:01.467Z,9.90
2019-03-10T20:49:29.291Z,9.80
2019-03-10T20:51:56.973Z,9.80
2019-03-10T20:54:24.682Z,9.80
2019-03-10T20:56:52.413Z,9.80
2019-03-10T20:59:20.257Z,9.80
2019-03-10T21:01:47.940Z,9.80
2019-03-10T21:04:15.799Z,9.80
2019-03-10T21:06:43.492Z,9.70
2019-03-10T21:09:11.246Z,9.70
2019-03-10T21:11:39.344Z,9.60
2019-03-10T21:14:07.125Z,9.60
2019-03-10T21:16:34.829Z,9.70
2019-03-10T21:19:02.556Z,9.70
2019-03-10T21:21:30.324Z,9.70
2019-03-10T21:23:57.977Z,9.60
2019-03-10T21:26:26.377Z,9.70
2019-03-10T21:28:54.034Z,9.70
2019-03-10T21:31:21.834Z,9.70
2019-03-10T21:33:49.534Z,9.80
2019-03-10T21:36:17.218Z,9.80
2019-03-10T21:38:44.969Z,9.60
2019-03-10T21:41:14.470Z,9.60
2019-03-10T21:43:42.453Z,9.60
2019-03-10T21:46:10.229Z,9.50
2019-03-10T21:48:37.944Z,9.40
2019-03-10T21:51:05.638Z,9.50
2019-03-10T21:53:33.441Z,9.70
2019-03-10T21:56:01.245Z,9.80
2019-03-10T21:58:29.002Z,9.70
2019-03-10T22:00:56.825Z,9.60
2019-03-10T22:03:24.518Z,9.60
2019-03-10T22:05:52.912Z,9.60
2019-03-10T22:08:21.622Z,9.70
2019-03-10T22:10:49.321Z,9.60
2019-03-10T22:13:17.025Z,9.60
2019-03-10T22:15:44.846Z,9.60
2019-03-10T22:18:14.528Z,9.50
2019-03-10T22:20:42.285Z,9.40
2019-03-10T22:23:09.978Z,9.40
2019-03-10T22:25:37.666Z,9.60
2019-03-10T22:28:05.557Z,9.50
2019-03-10T22:30:33.345Z,9.30
2019-03-10T22:33:01.149Z,9.20
2019-03-10T22:35:29.813Z,9.10
2019-03-10T22:37:57.497Z,9.20
2019-03-10T22:40:25.189Z,9.30
2019-03-10T22:42:52.881Z,9.30
2019-03-10T22:45:20.542Z,9.20
2019-03-10T22:47:48.236Z,9.20
2019-03-10T22:50:16.073Z,9.30
2019-03-10T22:52:43.947Z,9.20
2019-03-10T22:55:11.755Z,9.10
2019-03-10T22:57:39.430Z,9.10
2019-03-10T23:00:16.336Z,9.10
2019-03-10T23:02:45.879Z,8.90
2019-03-10T23:05:13.917Z,8.90
2019-03-10T23:07:41.573Z,8.90
2019-03-10T23:10:10.063Z,8.90
2019-03-10T23:12:37.740Z,8.90
2019-03-10T23:15:06.009Z,8.90
2019-03-10T23:17:33.734Z,9.00
2019-03-10T23:20:01.845Z,9.10
2019-03-10T23:22:29.738Z,9.00
2019-03-10T23:24:57.454Z,9.10
2019-03-10T23:27:25.090Z,9.10
2019-03-10T23:29:52.904Z,9.10
2019-03-10T23:32:20.693Z,9.10
2019-03-10T23:34:48.616Z,9.10
2019-03-10T23:37:16.316Z,9.10
2019-03-10T23:39:44.025Z,9.20
2019-03-10T23:42:11.836Z,9.20
2019-03-10T23:44:39.515Z,9.10
2019-03-10T23:47:07.216Z,8.90
2019-03-10T23:49:34.923Z,8.90
2019-03-10T23:52:02.647Z,8.80
2019-03-10T23:54:30.286Z,8.60
2019-03-10T23:56:57.993Z,8.50
2019-03-10T23:59:25.679Z,8.60
